createdAt,value
2017-11-13T00:01:42.235Z,3.80
2017-11-13T00:04:10.593Z,4.10
2017-11-13T00:06:40.223Z,4.30
2017-11-13T00:09:08.397Z,3.70
2017-11-13T00:11:36.720Z,4.30
2017-11-13T00:14:05.011Z,4.00
2017-11-13T00:16:34.430Z,3.37
2017-11-13T00:19:02.760Z,4.10
2017-11-13T00:21:32.167Z,4.07
2017-11-13T00:24:00.456Z,4.20
2017-11-13T00:26:28.783Z,3.70
2017-11-13T00:28:57.845Z,3.87
2017-11-13T00:31:26.511Z,3.73
2017-11-13T00:33:55.415Z,4.10
2017-11-13T00:36:23.697Z,3.30
2017-11-13T00:38:51.986Z,3.70
2017-11-13T00:41:20.310Z,3.43
2017-11-13T00:43:49.720Z,3.30
2017-11-13T00:46:17.988Z,3.97
2017-11-13T00:48:46.336Z,3.80
2017-11-13T00:51:14.628Z,3.90
2017-11-13T00:53:42.891Z,5.10
2017-11-13T00:56:13.005Z,3.20
2017-11-13T00:58:48.863Z,4.13
2017-11-13T01:01:17.963Z,3.10
2017-11-13T01:03:47.022Z,3.70
2017-11-13T01:06:15.291Z,3.00
2017-11-13T01:08:44.384Z,3.40
2017-11-13T01:11:12.664Z,3.70
2017-11-13T01:13:40.935Z,4.37
2017-11-13T01:16:09.270Z,3.20
2017-11-13T01:18:37.544Z,3.30
2017-11-13T01:21:05.813Z,3.30
2017-11-13T01:23:34.931Z,3.07
2017-11-13T01:26:03.983Z,2.80
2017-11-13T01:28:32.256Z,2.70
2017-11-13T01:31:01.344Z,3.47
2017-11-13T01:33:29.608Z,3.80
2017-11-13T01:35:57.880Z,3.03
2017-11-13T01:38:27.553Z,3.23
2017-11-13T01:40:56.469Z,2.80
2017-11-13T01:43:24.735Z,2.90
2017-11-13T01:45:53.824Z,3.50
2017-11-13T01:48:22.110Z,3.03
2017-11-13T01:50:50.373Z,2.67
2017-11-13T01:53:18.684Z,3.30
2017-11-13T01:55:46.951Z,3.30
2017-11-13T01:58:16.367Z,3.27
2017-11-13T02:00:44.702Z,2.70
2017-11-13T02:03:12.977Z,2.77
2017-11-13T02:05:41.659Z,2.70
2017-11-13T02:08:09.978Z,2.83
2017-11-13T02:10:38.284Z,2.90
2017-11-13T02:13:08.073Z,2.97
2017-11-13T02:15:36.390Z,2.40
2017-11-13T02:18:06.032Z,2.60
2017-11-13T02:20:34.195Z,2.57
2017-11-13T02:23:02.528Z,2.57
2017-11-13T02:25:31.554Z,2.83
2017-11-13T02:27:59.857Z,2.53
2017-11-13T02:30:28.239Z,2.50
2017-11-13T02:32:56.517Z,1.87
2017-11-13T02:35:26.188Z,2.43
2017-11-13T02:37:54.406Z,2.63
2017-11-13T02:40:22.704Z,2.10
2017-11-13T02:42:50.972Z,2.43
2017-11-13T02:45:19.311Z,3.37
2017-11-13T02:47:47.575Z,2.40
2017-11-13T02:50:15.866Z,2.90
2017-11-13T02:52:44.945Z,2.90
2017-11-13T02:55:13.235Z,3.17
2017-11-13T02:57:41.508Z,3.33
2017-11-13T03:00:09.821Z,3.10
2017-11-13T03:02:38.113Z,3.70
2017-11-13T03:05:06.377Z,3.40
2017-11-13T03:07:36.051Z,3.43
2017-11-13T03:10:04.592Z,2.80
2017-11-13T03:12:32.876Z,3.93
2017-11-13T03:15:01.990Z,2.90
2017-11-13T03:17:30.295Z,2.53
2017-11-13T03:19:58.560Z,3.57
2017-11-13T03:22:27.151Z,2.77
2017-11-13T03:24:56.205Z,2.37
2017-11-13T03:27:24.483Z,3.23
2017-11-13T03:29:53.556Z,2.20
2017-11-13T03:32:21.832Z,2.23
2017-11-13T03:34:51.475Z,2.10
2017-11-13T03:37:19.696Z,2.30
2017-11-13T03:39:47.964Z,1.90
2017-11-13T03:42:16.235Z,1.80
2017-11-13T03:44:45.931Z,1.90
2017-11-13T03:47:14.101Z,1.80
2017-11-13T03:49:42.364Z,2.90
2017-11-13T03:52:12.039Z,2.60
2017-11-13T03:54:41.722Z,2.50
2017-11-13T03:57:10.004Z,1.97
2017-11-13T03:59:38.360Z,1.80
2017-11-13T04:02:08.141Z,2.90
2017-11-13T04:04:36.437Z,1.73
2017-11-13T04:07:04.775Z,1.77
2017-11-13T04:09:33.058Z,1.70
2017-11-13T04:12:01.322Z,2.17
2017-11-13T04:14:30.123Z,4.07
2017-11-13T04:16:58.788Z,2.40
2017-11-13T04:19:27.074Z,1.87
2017-11-13T04:21:55.411Z,1.77
2017-11-13T04:24:23.683Z,2.40
2017-11-13T04:26:51.964Z,3.27
2017-11-13T04:29:20.900Z,1.37
2017-11-13T04:31:49.558Z,2.10
2017-11-13T04:34:19.640Z,2.53
2017-11-13T04:36:48.716Z,1.73
2017-11-13T04:39:17.746Z,2.60
2017-11-13T04:41:47.372Z,3.27
2017-11-13T04:44:15.583Z,2.07
2017-11-13T04:46:44.619Z,2.73
2017-11-13T04:49:12.917Z,2.00
2017-11-13T04:51:41.244Z,1.87
2017-11-13T04:54:09.530Z,2.53
2017-11-13T04:56:38.571Z,2.30
2017-11-13T04:59:06.927Z,2.57
2017-11-13T05:01:35.602Z,2.03
2017-11-13T05:04:03.880Z,2.23
2017-11-13T05:06:32.212Z,2.13
2017-11-13T05:09:01.643Z,2.33
2017-11-13T05:11:29.916Z,2.37
2017-11-13T05:13:58.250Z,2.93
2017-11-13T05:16:26.524Z,1.80
2017-11-13T05:18:55.552Z,1.70
2017-11-13T05:21:23.887Z,3.10
2017-11-13T05:23:52.182Z,2.10
2017-11-13T05:26:21.081Z,2.60
2017-11-13T05:28:50.200Z,2.30
2017-11-13T05:31:18.481Z,2.70
2017-11-13T05:33:48.110Z,2.40
2017-11-13T05:36:16.356Z,2.73
2017-11-13T05:38:44.628Z,2.03
2017-11-13T05:41:12.899Z,1.97
2017-11-13T05:43:41.218Z,2.77
2017-11-13T05:46:09.495Z,3.07
2017-11-13T05:48:37.767Z,2.30
2017-11-13T05:51:06.104Z,2.73
2017-11-13T05:53:35.911Z,2.47
2017-11-13T05:56:04.183Z,2.23
2017-11-13T05:58:32.519Z,2.27
2017-11-13T06:01:01.206Z,2.80
2017-11-13T06:03:29.475Z,2.40
2017-11-13T06:05:57.797Z,2.00
2017-11-13T06:08:26.073Z,2.50
2017-11-13T06:10:54.350Z,2.90
2017-11-13T06:13:24.218Z,2.53
2017-11-13T06:15:53.256Z,2.23
2017-11-13T06:18:22.300Z,2.10
2017-11-13T06:20:50.679Z,2.07
2017-11-13T06:23:19.351Z,2.40
2017-11-13T06:25:47.631Z,2.50
2017-11-13T06:28:17.080Z,2.30
2017-11-13T06:30:45.343Z,2.20
2017-11-13T06:33:13.626Z,1.93
2017-11-13T06:35:41.948Z,2.83
2017-11-13T06:38:10.215Z,1.97
2017-11-13T06:40:39.251Z,2.17
2017-11-13T06:43:07.622Z,2.93
2017-11-13T06:45:35.916Z,3.67
2017-11-13T06:48:04.200Z,4.00
2017-11-13T06:50:34.011Z,2.40
2017-11-13T06:53:02.299Z,2.70
2017-11-13T06:55:30.574Z,3.63
2017-11-13T06:57:58.903Z,4.43
2017-11-13T07:00:27.174Z,3.07
2017-11-13T07:02:56.593Z,3.10
2017-11-13T07:05:24.932Z,3.40
2017-11-13T07:07:53.223Z,3.57
2017-11-13T07:10:21.493Z,3.77
2017-11-13T07:12:49.808Z,3.50
2017-11-13T07:15:18.851Z,2.90
2017-11-13T07:17:47.886Z,2.67
2017-11-13T07:20:16.593Z,3.17
2017-11-13T07:22:44.863Z,2.93
2017-11-13T07:25:13.135Z,2.97
2017-11-13T07:27:42.855Z,5.40
2017-11-13T07:30:11.422Z,5.10
2017-11-13T07:32:39.714Z,4.27
2017-11-13T07:35:08.055Z,5.43
2017-11-13T07:37:36.324Z,4.70
2017-11-13T07:40:04.627Z,4.17
2017-11-13T07:42:34.459Z,5.40
2017-11-13T07:45:02.759Z,4.87
2017-11-13T07:47:31.054Z,4.90
2017-11-13T07:49:59.368Z,3.80
2017-11-13T07:52:29.146Z,4.60
2017-11-13T07:54:57.440Z,3.70
2017-11-13T07:57:25.807Z,5.20
2017-11-13T07:59:54.856Z,4.00
2017-11-13T08:02:23.127Z,5.03
2017-11-13T08:04:51.438Z,3.53
2017-11-13T08:07:21.241Z,5.70
2017-11-13T08:09:51.078Z,4.60
2017-11-13T08:12:20.172Z,4.17
2017-11-13T08:14:49.966Z,5.43
2017-11-13T08:17:18.289Z,4.83
2017-11-13T08:19:46.596Z,4.70
2017-11-13T08:22:14.871Z,4.23
2017-11-13T08:24:44.019Z,4.27
2017-11-13T08:27:12.296Z,3.47
2017-11-13T08:29:40.569Z,4.20
2017-11-13T08:32:08.920Z,3.23
2017-11-13T08:34:37.209Z,3.93
2017-11-13T08:37:05.495Z,3.43
2017-11-13T08:39:34.592Z,3.80
2017-11-13T08:42:03.661Z,3.83
2017-11-13T08:44:31.960Z,4.60
2017-11-13T08:47:01.060Z,3.80
2017-11-13T08:49:29.331Z,4.23
2017-11-13T08:51:59.112Z,3.40
2017-11-13T08:54:27.425Z,3.00
2017-11-13T08:56:55.728Z,4.53
2017-11-13T08:59:24.000Z,3.50
2017-11-13T09:01:52.367Z,5.00
2017-11-13T09:04:20.631Z,3.90
2017-11-13T09:06:50.035Z,4.30
2017-11-13T09:09:18.343Z,4.50
2017-11-13T09:11:46.644Z,4.40
2017-11-13T09:14:14.952Z,4.30
2017-11-13T09:16:43.299Z,3.63
2017-11-13T09:19:12.338Z,3.13
2017-11-13T09:21:43.188Z,4.30
2017-11-13T09:24:11.504Z,3.60
2017-11-13T09:26:40.552Z,3.23
2017-11-13T09:29:09.853Z,3.37
2017-11-13T09:31:38.909Z,3.47
2017-11-13T09:34:07.180Z,3.37
2017-11-13T09:36:37.043Z,4.30
2017-11-13T09:39:05.332Z,4.07
2017-11-13T09:41:34.384Z,4.30
2017-11-13T09:44:03.523Z,3.17
2017-11-13T09:46:31.798Z,3.43
2017-11-13T09:49:00.088Z,2.87
2017-11-13T09:51:28.426Z,3.23
2017-11-13T09:53:56.735Z,3.20
2017-11-13T09:56:25.007Z,3.40
2017-11-13T09:58:54.122Z,3.53
2017-11-13T10:01:22.400Z,3.17
2017-11-13T10:03:51.451Z,2.60
2017-11-13T10:06:20.546Z,3.03
2017-11-13T10:08:50.338Z,3.30
2017-11-13T10:11:18.638Z,3.13
2017-11-13T10:13:46.966Z,2.90
2017-11-13T10:16:15.246Z,2.53
2017-11-13T10:18:43.925Z,2.83
2017-11-13T10:21:13.027Z,3.00
2017-11-13T10:23:42.087Z,3.10
2017-11-13T10:26:10.367Z,3.30
2017-11-13T10:28:39.829Z,3.00
2017-11-13T10:31:08.106Z,2.70
2017-11-13T10:33:36.393Z,3.30
2017-11-13T10:36:04.739Z,3.13
2017-11-13T10:38:33.778Z,2.43
2017-11-13T10:41:03.434Z,4.00
2017-11-13T10:43:32.039Z,3.27
2017-11-13T10:46:01.468Z,3.47
2017-11-13T10:48:30.178Z,2.73
2017-11-13T10:50:59.846Z,3.00
2017-11-13T10:53:28.399Z,3.27
2017-11-13T10:55:56.675Z,2.77
2017-11-13T10:58:25.022Z,2.20
2017-11-13T11:00:54.810Z,5.20
2017-11-13T11:03:23.095Z,3.33
2017-11-13T11:05:51.417Z,2.77
2017-11-13T11:08:19.691Z,2.87
2017-11-13T11:10:47.967Z,2.97
2017-11-13T11:13:17.813Z,3.33
2017-11-13T11:16:01.595Z,2.60
2017-11-13T11:18:36.796Z,2.73
2017-11-13T11:21:05.840Z,3.33
2017-11-13T11:23:51.187Z,2.93
2017-11-13T11:26:20.100Z,4.33
2017-11-13T11:28:51.831Z,3.20
2017-11-13T11:31:22.431Z,2.97
2017-11-13T11:36:53.562Z,3.00
2017-11-13T11:39:23.415Z,3.57
2017-11-13T11:41:52.823Z,3.17
2017-11-13T11:44:29.752Z,3.10
2017-11-13T11:46:58.091Z,4.47
2017-11-13T11:49:43.191Z,3.47
2017-11-13T11:52:11.489Z,2.80
2017-11-13T11:54:39.797Z,2.50
2017-11-13T11:57:11.156Z,3.00
2017-11-13T11:59:40.207Z,4.30
2017-11-13T12:02:08.476Z,4.90
2017-11-13T12:04:36.827Z,2.70
2017-11-13T12:07:05.868Z,2.70
2017-11-13T12:09:34.144Z,2.47
2017-11-13T12:12:03.228Z,3.07
2017-11-13T12:14:32.277Z,2.23
2017-11-13T12:17:00.560Z,2.37
2017-11-13T12:19:28.898Z,3.90
2017-11-13T12:21:58.530Z,3.20
2017-11-13T12:24:26.682Z,3.03
2017-11-13T12:26:54.996Z,3.30
2017-11-13T12:29:23.272Z,2.57
2017-11-13T12:31:51.552Z,3.60
2017-11-13T12:34:19.863Z,3.73
2017-11-13T12:36:48.141Z,4.60
2017-11-13T12:39:16.429Z,2.90
2017-11-13T12:41:46.268Z,3.20
2017-11-13T12:44:15.683Z,1.93
2017-11-13T12:46:44.348Z,2.97
2017-11-13T12:49:13.124Z,3.23
2017-11-13T12:51:41.800Z,3.03
2017-11-13T12:54:10.076Z,3.00
2017-11-13T12:56:39.330Z,2.77
2017-11-13T12:59:08.986Z,3.00
2017-11-13T13:01:37.166Z,2.70
2017-11-13T13:04:05.520Z,3.33
2017-11-13T13:06:34.576Z,3.37
2017-11-13T13:09:02.856Z,2.17
2017-11-13T13:11:31.183Z,2.40
2017-11-13T13:13:59.462Z,3.73
2017-11-13T13:16:27.736Z,2.47
2017-11-13T13:18:56.072Z,2.67
2017-11-13T13:21:25.849Z,2.80
2017-11-13T13:23:55.475Z,2.77
2017-11-13T13:26:25.396Z,2.90
2017-11-13T13:28:54.352Z,2.00
2017-11-13T13:31:24.630Z,3.00
2017-11-13T13:33:53.751Z,2.50
2017-11-13T13:36:22.038Z,2.00
2017-11-13T13:38:50.314Z,2.47
2017-11-13T13:41:20.152Z,1.90
2017-11-13T13:43:49.780Z,2.80
2017-11-13T13:46:18.343Z,2.07
2017-11-13T13:48:46.686Z,1.67
2017-11-13T13:51:15.100Z,2.70
2017-11-13T13:53:44.902Z,2.77
2017-11-13T13:56:13.994Z,3.00
2017-11-13T13:58:43.795Z,2.53
2017-11-13T14:01:12.071Z,1.87
2017-11-13T14:03:41.907Z,1.53
2017-11-13T14:06:11.542Z,2.87
2017-11-13T14:08:40.094Z,2.83
2017-11-13T14:11:09.572Z,2.40
2017-11-13T14:13:38.629Z,2.37
2017-11-13T14:16:07.664Z,2.50
2017-11-13T14:18:36.001Z,2.50
2017-11-13T14:21:04.293Z,2.20
2017-11-13T14:23:32.596Z,4.20
2017-11-13T14:26:00.952Z,3.13
2017-11-13T14:28:29.996Z,2.73
2017-11-13T14:30:58.276Z,1.90
2017-11-13T14:33:26.598Z,2.50
2017-11-13T14:35:55.661Z,2.43
2017-11-13T14:38:25.076Z,2.60
2017-11-13T14:40:53.396Z,1.97
2017-11-13T14:43:21.673Z,2.43
2017-11-13T14:45:52.146Z,4.83
2017-11-13T14:48:20.350Z,2.77
2017-11-13T14:50:49.384Z,2.63
2017-11-13T14:53:18.425Z,3.43
2017-11-13T14:55:47.512Z,4.13
2017-11-13T14:58:17.154Z,2.50
2017-11-13T15:00:45.700Z,2.50
2017-11-13T15:03:15.376Z,2.23
2017-11-13T15:05:43.930Z,2.60
2017-11-13T15:08:13.589Z,2.27
2017-11-13T15:11:01.666Z,2.87
2017-11-13T15:13:30.337Z,2.60
2017-11-13T15:15:58.627Z,3.13
2017-11-13T15:18:26.959Z,2.50
2017-11-13T15:20:56.745Z,2.53
2017-11-13T15:23:25.036Z,3.30
2017-11-13T15:25:53.370Z,3.00
2017-11-13T15:28:21.663Z,2.97
2017-11-13T15:30:49.955Z,2.17
2017-11-13T15:33:18.292Z,2.60
2017-11-13T15:35:47.359Z,3.40
2017-11-13T15:38:15.654Z,2.87
2017-11-13T15:40:43.989Z,2.80
2017-11-13T15:43:12.287Z,2.50
2017-11-13T15:45:41.728Z,3.77
2017-11-13T15:48:10.072Z,2.20
2017-11-13T15:50:39.861Z,2.77
2017-11-13T15:53:08.144Z,2.83
2017-11-13T15:55:36.558Z,3.10
2017-11-13T15:58:04.850Z,4.50
2017-11-13T16:00:33.136Z,3.50
2017-11-13T16:03:01.464Z,3.00
2017-11-13T16:05:29.727Z,3.00
2017-11-13T16:07:59.519Z,4.27
2017-11-13T16:10:27.866Z,3.30
2017-11-13T16:12:56.911Z,3.80
2017-11-13T16:15:25.195Z,3.93
2017-11-13T16:17:54.280Z,2.80
2017-11-13T16:20:23.337Z,2.53
2017-11-13T16:22:51.610Z,4.00
2017-11-13T16:25:21.448Z,3.20
2017-11-13T16:27:49.746Z,3.23
2017-11-13T16:30:18.020Z,3.73
2017-11-13T16:32:46.347Z,3.00
2017-11-13T16:35:14.618Z,3.10
2017-11-13T16:37:42.896Z,3.10
2017-11-13T16:40:12.572Z,2.63
2017-11-13T16:42:40.715Z,2.93
2017-11-13T16:45:10.342Z,3.30
2017-11-13T16:47:39.350Z,3.20
2017-11-13T16:50:07.616Z,2.97
2017-11-13T16:52:35.909Z,3.57
2017-11-13T16:55:05.007Z,2.17
2017-11-13T16:57:34.821Z,3.20
2017-11-13T17:00:03.113Z,2.33
2017-11-13T17:02:31.434Z,3.60
2017-11-13T17:04:59.706Z,3.90
2017-11-13T17:07:27.987Z,3.40
2017-11-13T17:09:56.295Z,2.60
2017-11-13T17:12:25.342Z,3.10
2017-11-13T17:14:53.634Z,2.70
2017-11-13T17:17:21.955Z,2.43
2017-11-13T17:19:50.230Z,3.23
2017-11-13T17:22:18.519Z,3.60
2017-11-13T17:24:47.240Z,3.00
2017-11-13T17:27:16.859Z,2.50
2017-11-13T17:29:45.026Z,2.27
2017-11-13T17:32:14.702Z,3.40
2017-11-13T17:34:43.634Z,3.27
2017-11-13T17:37:11.908Z,3.20
2017-11-13T17:39:40.998Z,2.63
2017-11-13T17:42:10.056Z,3.50
2017-11-13T17:44:39.096Z,2.43
2017-11-13T17:47:07.420Z,3.07
2017-11-13T17:49:36.087Z,3.50
2017-11-13T17:52:05.512Z,3.33
2017-11-13T17:54:33.842Z,3.73
2017-11-13T17:57:03.827Z,3.00
2017-11-13T17:59:32.100Z,3.93
2017-11-13T18:02:00.419Z,3.53
2017-11-13T18:04:28.691Z,3.60
2017-11-13T18:06:57.072Z,4.87
2017-11-13T18:09:27.073Z,4.20
2017-11-13T18:11:56.142Z,3.80
2017-11-13T18:14:25.319Z,4.43
2017-11-13T18:16:53.652Z,3.80
2017-11-13T18:19:23.377Z,4.73
2017-11-13T18:21:51.918Z,3.83
2017-11-13T18:24:20.713Z,4.53
2017-11-13T18:26:49.042Z,5.03
2017-11-13T18:29:17.405Z,4.30
2017-11-13T18:31:47.323Z,3.70
2017-11-13T18:34:15.689Z,5.10
2017-11-13T18:36:45.486Z,6.50
2017-11-13T18:39:13.835Z,6.17
2017-11-13T18:41:42.517Z,5.63
2017-11-13T18:44:10.811Z,5.17
2017-11-13T18:46:40.267Z,4.53
2017-11-13T18:49:09.915Z,5.20
2017-11-13T18:51:38.502Z,5.37
2017-11-13T18:54:06.925Z,5.50
2017-11-13T18:56:36.387Z,4.13
2017-11-13T18:59:06.059Z,4.87
2017-11-13T19:01:35.040Z,4.80
2017-11-13T19:04:03.703Z,4.70
2017-11-13T19:06:32.793Z,4.67
2017-11-13T19:09:02.479Z,6.07
2017-11-13T19:11:31.255Z,5.67
2017-11-13T19:14:01.147Z,6.93
2017-11-13T19:16:29.583Z,6.63
2017-11-13T19:18:59.247Z,6.20
2017-11-13T19:21:27.456Z,5.17
2017-11-13T19:23:56.511Z,6.60
2017-11-13T19:26:25.763Z,6.20
2017-11-13T19:28:54.488Z,5.90
2017-11-13T19:31:22.765Z,6.17
2017-11-13T19:33:51.072Z,6.60
2017-11-13T19:36:20.830Z,6.10
2017-11-13T19:38:50.271Z,5.80
2017-11-13T19:41:20.009Z,6.90
2017-11-13T19:43:48.197Z,7.47
2017-11-13T19:46:16.508Z,6.10
2017-11-13T19:48:44.849Z,9.03
2017-11-13T19:51:13.167Z,7.83
2017-11-13T19:53:41.494Z,8.93
2017-11-13T19:56:09.826Z,7.03
2017-11-13T19:58:39.633Z,7.43
2017-11-13T20:01:07.908Z,6.77
2017-11-13T20:03:36.270Z,6.80
2017-11-13T20:06:04.548Z,7.90
2017-11-13T20:08:33.983Z,5.97
2017-11-13T20:11:02.367Z,7.40
2017-11-13T20:13:32.069Z,8.37
2017-11-13T20:16:01.573Z,6.87
2017-11-13T20:18:31.283Z,7.80
2017-11-13T20:21:00.200Z,6.27
2017-11-13T20:23:29.282Z,6.13
2017-11-13T20:25:58.399Z,8.57
2017-11-13T20:28:26.714Z,7.80
2017-11-13T20:30:54.983Z,6.20
2017-11-13T20:33:23.303Z,7.10
2017-11-13T20:35:52.711Z,6.60
2017-11-13T20:38:20.987Z,8.93
2017-11-13T20:40:50.080Z,7.37
2017-11-13T20:43:19.882Z,8.23
2017-11-13T20:45:48.184Z,8.40
2017-11-13T20:48:17.263Z,8.70
2017-11-13T20:50:46.301Z,8.27
2017-11-13T20:53:14.594Z,8.73
2017-11-13T20:55:44.270Z,8.40
2017-11-13T20:58:12.416Z,8.70
2017-11-13T21:00:41.831Z,9.10
2017-11-13T21:03:11.217Z,8.57
2017-11-13T21:05:39.932Z,9.47
2017-11-13T21:08:08.216Z,8.67
2017-11-13T21:10:36.534Z,8.70
2017-11-13T21:13:04.811Z,9.53
2017-11-13T21:15:34.619Z,8.30
2017-11-13T21:18:03.002Z,8.57
2017-11-13T21:20:31.287Z,8.77
2017-11-13T21:22:59.569Z,7.87
2017-11-13T21:25:27.931Z,7.63
2017-11-13T21:27:56.208Z,8.17
2017-11-13T21:30:24.486Z,7.67
2017-11-13T21:32:53.587Z,8.30
2017-11-13T21:35:22.622Z,7.50
2017-11-13T21:37:52.251Z,8.70
2017-11-13T21:40:21.834Z,8.63
2017-11-13T21:42:51.338Z,8.77
2017-11-13T21:45:19.897Z,8.27
2017-11-13T21:47:48.237Z,7.30
2017-11-13T21:50:16.516Z,6.70
2017-11-13T21:52:44.797Z,7.40
2017-11-13T21:55:14.259Z,6.70
2017-11-13T21:57:43.897Z,7.00
2017-11-13T22:00:12.446Z,9.07
2017-11-13T22:02:41.887Z,6.00
2017-11-13T22:05:10.559Z,5.67
2017-11-13T22:07:38.839Z,6.60
2017-11-13T22:10:07.160Z,5.90
2017-11-13T22:12:36.196Z,6.03
2017-11-13T22:15:05.606Z,7.27
2017-11-13T22:17:35.301Z,7.60
2017-11-13T22:20:04.600Z,9.03
2017-11-13T22:22:34.394Z,6.13
2017-11-13T22:25:02.724Z,7.20
2017-11-13T22:27:31.764Z,6.23
2017-11-13T22:30:00.060Z,7.40
2017-11-13T22:32:28.396Z,6.80
2017-11-13T22:34:56.681Z,6.67
2017-11-13T22:37:24.952Z,7.00
2017-11-13T22:39:54.639Z,8.40
2017-11-13T22:42:22.790Z,7.03
2017-11-13T22:44:52.424Z,7.70
2017-11-13T22:47:21.672Z,9.40
2017-11-13T22:49:49.968Z,9.00
2017-11-13T22:52:19.026Z,7.57
2017-11-13T22:54:47.378Z,7.77
2017-11-13T22:57:15.660Z,7.60
2017-11-13T22:59:45.294Z,6.80
2017-11-13T23:02:13.906Z,6.43
2017-11-13T23:04:42.183Z,6.63
2017-11-13T23:07:10.464Z,7.00
2017-11-13T23:09:38.807Z,6.73
2017-11-13T23:12:08.441Z,6.27
2017-11-13T23:14:37.010Z,7.00
2017-11-13T23:17:06.280Z,6.00
2017-11-13T23:19:36.066Z,6.27
2017-11-13T23:22:04.362Z,7.60
2017-11-13T23:24:32.675Z,6.50
2017-11-13T23:27:00.948Z,7.20
2017-11-13T23:29:29.231Z,6.50
2017-11-13T23:31:57.553Z,6.30
2017-11-13T23:34:25.857Z,6.57
2017-11-13T23:36:54.134Z,8.90
2017-11-13T23:39:23.821Z,8.07
2017-11-13T23:41:51.970Z,7.83
2017-11-13T23:44:20.245Z,6.80
2017-11-13T23:46:49.339Z,6.13
2017-11-13T23:49:17.616Z,6.43
2017-11-13T23:51:46.651Z,6.40
2017-11-13T23:54:26.865Z,6.73
2017-11-13T23:56:55.558Z,6.37
2017-11-13T23:59:25.209Z,5.53
